createdAt,value
2023-01-23T00:01:36.337Z,35.52
2023-01-23T00:04:06.690Z,35.43
2023-01-23T00:06:34.792Z,35.58
2023-01-23T00:09:06.598Z,35.30
2023-01-23T00:11:35.049Z,35.67
2023-01-23T00:14:03.983Z,35.47
2023-01-23T00:16:33.982Z,35.51
2023-01-23T00:19:02.074Z,35.41
2023-01-23T00:21:31.138Z,35.50
2023-01-23T00:24:01.561Z,35.58
2023-01-23T00:26:33.903Z,35.44
2023-01-23T00:29:03.295Z,35.44
2023-01-23T00:31:33.329Z,35.39
2023-01-23T00:34:03.096Z,35.21
2023-01-23T00:36:32.722Z,35.49
2023-01-23T00:39:01.330Z,35.40
2023-01-23T00:41:33.171Z,35.28
2023-01-23T00:44:01.198Z,35.35
2023-01-23T00:46:29.202Z,35.34
2023-01-23T00:48:57.197Z,35.33
2023-01-23T00:51:25.579Z,35.26
2023-01-23T00:53:54.244Z,35.30
2023-01-23T00:56:22.191Z,35.33
2023-01-23T00:58:54.801Z,35.31
2023-01-23T01:01:23.758Z,35.12
2023-01-23T01:03:51.889Z,35.23
2023-01-23T01:06:20.034Z,35.37
2023-01-23T01:08:49.531Z,35.29
2023-01-23T01:11:17.715Z,35.23
2023-01-23T01:13:46.424Z,35.16
2023-01-23T01:16:15.745Z,35.19
2023-01-23T01:18:44.160Z,35.25
2023-01-23T01:21:16.370Z,35.24
2023-01-23T01:23:46.776Z,35.28
2023-01-23T01:26:14.995Z,35.19
2023-01-23T01:28:43.290Z,35.27
2023-01-23T01:31:13.922Z,35.32
2023-01-23T01:33:44.507Z,35.36
2023-01-23T01:36:13.983Z,35.26
2023-01-23T01:38:42.226Z,35.33
2023-01-23T01:41:12.180Z,35.25
2023-01-23T01:43:40.686Z,35.56
2023-01-23T01:46:12.951Z,36.54
2023-01-23T01:48:45.444Z,37.35
2023-01-23T01:51:19.793Z,37.49
2023-01-23T01:53:50.747Z,37.19
2023-01-23T01:56:19.784Z,37.01
2023-01-23T01:58:50.961Z,36.84
2023-01-23T02:01:19.871Z,36.65
2023-01-23T02:03:52.177Z,36.48
2023-01-23T02:06:21.225Z,36.47
2023-01-23T02:08:59.413Z,36.38
2023-01-23T02:11:27.429Z,36.32
2023-01-23T02:13:57.075Z,36.43
2023-01-23T02:16:40.281Z,36.24
2023-01-23T02:19:23.776Z,36.20
2023-01-23T02:22:02.294Z,36.25
2023-01-23T02:24:37.157Z,36.21
2023-01-23T02:27:06.623Z,36.21
2023-01-23T02:29:45.814Z,36.17
2023-01-23T02:32:13.884Z,36.26
2023-01-23T02:34:43.566Z,36.00
2023-01-23T02:37:11.747Z,36.00
2023-01-23T02:39:40.639Z,35.95
2023-01-23T02:42:10.844Z,36.21
2023-01-23T02:44:38.808Z,36.06
2023-01-23T02:47:11.861Z,35.94
2023-01-23T02:49:40.437Z,35.96
2023-01-23T02:52:09.674Z,36.20
2023-01-23T02:54:40.818Z,36.05
2023-01-23T02:57:10.470Z,36.08
2023-01-23T02:59:55.823Z,35.99
2023-01-23T03:02:26.552Z,36.06
2023-01-23T03:04:54.697Z,36.01
2023-01-23T03:07:22.679Z,36.07
2023-01-23T03:09:51.099Z,36.00
2023-01-23T03:12:22.873Z,35.93
2023-01-23T03:14:54.736Z,36.01
2023-01-23T03:17:23.461Z,35.74
2023-01-23T03:19:51.749Z,35.99
2023-01-23T03:22:20.116Z,36.01
2023-01-23T03:24:49.213Z,35.88
2023-01-23T03:27:17.328Z,35.86
2023-01-23T03:30:03.798Z,36.00
2023-01-23T03:32:31.783Z,35.81
2023-01-23T03:34:59.861Z,35.84
2023-01-23T03:37:27.855Z,35.88
2023-01-23T03:40:24.784Z,35.78
2023-01-23T03:42:52.743Z,35.63
2023-01-23T03:45:22.039Z,35.57
2023-01-23T03:47:50.076Z,35.70
2023-01-23T03:50:18.335Z,35.71
2023-01-23T03:52:46.456Z,35.69
2023-01-23T03:55:14.545Z,35.69
2023-01-23T03:57:42.597Z,35.56
2023-01-23T04:00:13.791Z,35.70
2023-01-23T04:02:43.331Z,35.66
2023-01-23T04:05:11.478Z,35.60
2023-01-23T04:07:39.422Z,35.70
2023-01-23T04:10:07.809Z,35.71
2023-01-23T04:12:35.736Z,35.60
2023-01-23T04:15:03.774Z,35.66
2023-01-23T04:17:31.707Z,35.91
2023-01-23T04:20:01.124Z,35.90
2023-01-23T04:22:29.223Z,35.69
2023-01-23T04:24:57.318Z,35.54
2023-01-23T04:27:25.386Z,35.54
2023-01-23T04:29:53.357Z,35.60
2023-01-23T04:32:21.610Z,35.53
2023-01-23T04:34:49.553Z,35.67
2023-01-23T04:37:19.139Z,35.67
2023-01-23T04:39:47.065Z,35.56
2023-01-23T04:42:15.045Z,35.52
2023-01-23T04:44:42.998Z,35.51
2023-01-23T04:47:11.026Z,35.64
2023-01-23T04:49:39.186Z,35.58
2023-01-23T04:52:07.144Z,35.49
2023-01-23T04:54:36.736Z,35.59
2023-01-23T04:57:04.966Z,35.75
2023-01-23T04:59:32.886Z,35.39
2023-01-23T05:02:02.378Z,35.32
2023-01-23T05:04:30.339Z,35.44
2023-01-23T05:06:58.338Z,35.32
2023-01-23T05:09:26.244Z,35.35
2023-01-23T05:11:55.581Z,35.39
2023-01-23T05:14:25.344Z,35.36
2023-01-23T05:16:53.371Z,35.26
2023-01-23T05:19:21.336Z,35.23
2023-01-23T05:21:49.316Z,35.36
2023-01-23T05:24:17.291Z,35.26
2023-01-23T05:26:45.336Z,35.40
2023-01-23T05:29:14.780Z,35.58
2023-01-23T05:31:42.806Z,35.38
2023-01-23T05:34:10.719Z,35.60
2023-01-23T05:36:39.050Z,35.36
2023-01-23T05:39:07.027Z,35.52
2023-01-23T05:41:35.057Z,35.48
2023-01-23T05:44:03.381Z,35.37
2023-01-23T05:46:32.887Z,35.41
2023-01-23T05:49:00.883Z,35.41
2023-01-23T05:51:32.488Z,35.29
2023-01-23T05:54:00.730Z,35.50
2023-01-23T05:56:29.386Z,35.35
2023-01-23T05:58:57.434Z,35.42
2023-01-23T06:01:25.554Z,35.54
2023-01-23T06:03:54.967Z,35.49
2023-01-23T06:06:23.027Z,35.30
2023-01-23T06:08:51.003Z,35.24
2023-01-23T06:11:18.990Z,35.28
2023-01-23T06:13:47.039Z,35.23
2023-01-23T06:16:15.102Z,35.25
2023-01-23T06:18:43.049Z,35.25
2023-01-23T06:21:12.430Z,35.38
2023-01-23T06:23:40.356Z,35.25
2023-01-23T06:26:08.373Z,35.19
2023-01-23T06:28:36.395Z,35.32
2023-01-23T06:31:06.556Z,35.24
2023-01-23T06:33:34.682Z,35.26
2023-01-23T06:36:04.195Z,35.20
2023-01-23T06:38:33.981Z,34.97
2023-01-23T06:41:02.500Z,35.22
2023-01-23T06:43:30.447Z,35.30
2023-01-23T06:45:58.754Z,35.16
2023-01-23T06:48:26.725Z,35.32
2023-01-23T06:50:55.069Z,35.19
2023-01-23T06:53:23.016Z,35.14
2023-01-23T06:55:52.357Z,35.07
2023-01-23T06:58:20.710Z,35.27
2023-01-23T07:00:48.707Z,35.27
2023-01-23T07:03:17.318Z,35.26
2023-01-23T07:05:45.376Z,34.90
2023-01-23T07:08:13.677Z,35.09
2023-01-23T07:10:41.970Z,35.32
2023-01-23T07:13:12.681Z,35.38
2023-01-23T07:15:41.269Z,35.22
2023-01-23T07:18:11.139Z,35.33
2023-01-23T07:20:39.087Z,35.19
2023-01-23T07:23:07.052Z,35.10
2023-01-23T07:25:35.275Z,36.66
2023-01-23T07:28:03.397Z,36.34
2023-01-23T07:30:32.832Z,36.28
2023-01-23T07:33:01.578Z,36.43
2023-01-23T07:35:29.690Z,36.85
2023-01-23T07:37:58.281Z,37.54
2023-01-23T07:40:26.698Z,37.33
2023-01-23T07:42:54.690Z,37.06
2023-01-23T07:45:22.634Z,37.15
2023-01-23T07:47:51.908Z,37.20
2023-01-23T07:50:20.124Z,37.41
2023-01-23T07:52:48.547Z,37.18
2023-01-23T07:55:16.719Z,36.91
2023-01-23T07:57:44.816Z,37.06
2023-01-23T08:00:13.539Z,37.41
2023-01-23T08:02:41.497Z,37.46
2023-01-23T08:05:11.453Z,37.30
2023-01-23T08:07:39.426Z,37.67
2023-01-23T08:10:08.334Z,37.74
2023-01-23T08:12:36.438Z,37.71
2023-01-23T08:15:05.426Z,37.78
2023-01-23T08:17:33.713Z,37.81
2023-01-23T08:20:01.643Z,37.78
2023-01-23T08:22:31.163Z,37.83
2023-01-23T08:24:59.189Z,37.75
2023-01-23T08:27:27.276Z,37.82
2023-01-23T08:29:55.294Z,37.90
2023-01-23T08:32:23.322Z,38.10
2023-01-23T08:34:51.447Z,38.15
2023-01-23T08:37:19.420Z,38.00
2023-01-23T08:39:48.824Z,38.57
2023-01-23T08:42:16.763Z,38.28
2023-01-23T08:44:44.859Z,38.26
2023-01-23T08:47:12.894Z,38.33
2023-01-23T08:49:40.872Z,38.39
2023-01-23T08:52:08.851Z,38.42
2023-01-23T08:54:37.126Z,38.42
2023-01-23T08:57:08.309Z,38.46
2023-01-23T08:59:36.314Z,38.35
2023-01-23T09:02:06.534Z,38.31
2023-01-23T09:04:34.566Z,38.42
2023-01-23T09:07:05.099Z,38.47
2023-01-23T09:09:35.928Z,38.51
2023-01-23T09:12:04.369Z,38.60
2023-01-23T09:14:36.102Z,38.54
2023-01-23T09:17:04.279Z,38.74
2023-01-23T09:19:32.660Z,38.54
2023-01-23T09:22:00.735Z,38.88
2023-01-23T09:24:28.736Z,38.69
2023-01-23T09:26:57.064Z,39.02
2023-01-23T09:29:25.110Z,38.97
2023-01-23T09:31:54.453Z,39.09
2023-01-23T09:34:22.476Z,38.72
2023-01-23T09:36:50.484Z,39.02
2023-01-23T09:39:18.832Z,39.16
2023-01-23T09:41:48.248Z,39.04
2023-01-23T09:44:23.328Z,39.14
2023-01-23T09:46:55.192Z,39.18
2023-01-23T09:49:29.300Z,39.33
2023-01-23T09:52:02.972Z,39.03
2023-01-23T09:54:38.273Z,39.22
2023-01-23T09:57:14.633Z,39.27
2023-01-23T10:00:00.451Z,39.34
2023-01-23T10:02:30.580Z,39.17
2023-01-23T10:05:02.631Z,39.29
2023-01-23T10:07:59.285Z,39.44
2023-01-23T10:10:54.856Z,39.20
2023-01-23T10:13:45.457Z,39.34
2023-01-23T10:16:49.900Z,39.10
2023-01-23T10:19:37.285Z,39.30
2023-01-23T10:22:22.577Z,39.04
2023-01-23T10:24:53.091Z,39.28
2023-01-23T10:27:22.804Z,39.04
2023-01-23T10:29:57.667Z,39.10
2023-01-23T10:32:28.153Z,39.36
2023-01-23T10:35:05.199Z,39.32
2023-01-23T10:37:44.217Z,39.17
2023-01-23T10:40:16.573Z,39.71
2023-01-23T10:42:44.785Z,39.98
2023-01-23T10:45:20.353Z,39.70
2023-01-23T10:47:54.724Z,39.82
2023-01-23T10:50:36.810Z,39.74
2023-01-23T10:53:08.292Z,39.67
2023-01-23T10:55:36.564Z,39.94
2023-01-23T10:58:06.952Z,39.98
2023-01-23T11:00:37.516Z,40.10
2023-01-23T11:03:32.547Z,40.18
2023-01-23T11:06:06.990Z,40.11
2023-01-23T11:08:37.285Z,40.38
2023-01-23T11:11:30.555Z,39.93
2023-01-23T11:14:11.900Z,40.30
2023-01-23T11:16:43.072Z,40.19
2023-01-23T11:19:19.177Z,40.06
2023-01-23T11:21:57.138Z,40.28
2023-01-23T11:24:41.117Z,40.22
2023-01-23T11:27:20.177Z,40.39
2023-01-23T11:30:02.360Z,40.33
2023-01-23T11:32:34.724Z,40.42
2023-01-23T11:35:13.372Z,40.64
2023-01-23T11:37:43.561Z,40.83
2023-01-23T11:40:15.138Z,40.67
2023-01-23T11:42:44.840Z,40.46
2023-01-23T11:45:20.593Z,40.28
2023-01-23T11:48:04.500Z,40.49
2023-01-23T11:50:54.966Z,40.56
2023-01-23T11:53:42.024Z,40.45
2023-01-23T11:56:40.886Z,40.39
2023-01-23T11:59:32.176Z,40.55
2023-01-23T12:02:25.513Z,40.53
2023-01-23T12:05:09.663Z,40.79
2023-01-23T12:07:47.008Z,40.58
2023-01-23T12:10:25.247Z,40.35
2023-01-23T12:13:07.906Z,39.63
2023-01-23T12:15:40.334Z,40.08
2023-01-23T12:18:19.045Z,40.45
2023-01-23T12:20:59.972Z,39.97
2023-01-23T12:23:47.909Z,40.24
2023-01-23T12:26:22.375Z,40.45
2023-01-23T12:29:08.246Z,40.26
2023-01-23T12:31:49.694Z,40.53
2023-01-23T12:34:35.867Z,40.57
2023-01-23T12:37:30.384Z,39.72
2023-01-23T12:40:11.543Z,40.41
2023-01-23T12:42:47.419Z,40.38
2023-01-23T12:45:23.678Z,40.14
2023-01-23T12:48:01.754Z,40.50
2023-01-23T12:50:40.032Z,40.83
2023-01-23T12:53:12.304Z,40.79
2023-01-23T12:55:47.491Z,41.28
2023-01-23T12:58:20.345Z,41.01
2023-01-23T13:00:59.234Z,41.10
2023-01-23T13:03:55.185Z,41.21
2023-01-23T13:06:36.567Z,41.29
2023-01-23T13:09:18.376Z,41.37
2023-01-23T13:11:56.797Z,41.46
2023-01-23T13:15:03.502Z,41.42
2023-01-23T13:17:46.097Z,41.68
2023-01-23T13:20:43.662Z,41.74
2023-01-23T13:23:30.916Z,41.61
2023-01-23T13:26:29.276Z,41.92
2023-01-23T13:29:01.544Z,41.86
2023-01-23T13:31:41.941Z,42.04
2023-01-23T13:34:39.246Z,41.89
2023-01-23T13:37:51.399Z,41.94
2023-01-23T13:40:25.000Z,41.96
2023-01-23T13:42:53.386Z,41.99
2023-01-23T13:45:27.647Z,42.00
2023-01-23T14:21:27.680Z,41.91
2023-01-23T14:24:01.246Z,41.95
2023-01-23T14:26:31.015Z,41.73
2023-01-23T14:29:01.635Z,42.03
2023-01-23T14:31:31.868Z,42.05
2023-01-23T14:34:09.616Z,41.95
2023-01-23T14:36:43.587Z,41.92
2023-01-23T14:39:17.987Z,42.06
2023-01-23T14:41:47.655Z,41.93
2023-01-23T14:44:22.409Z,41.99
2023-01-23T14:46:54.075Z,41.86
2023-01-23T14:49:27.580Z,41.93
2023-01-23T14:52:00.264Z,41.96
2023-01-23T14:54:32.888Z,41.47
2023-01-23T14:57:05.694Z,41.72
2023-01-23T14:59:36.162Z,41.74
2023-01-23T15:02:21.003Z,41.54
2023-01-23T15:05:10.684Z,41.92
2023-01-23T15:07:46.326Z,42.15
2023-01-23T15:10:17.401Z,41.78
2023-01-23T15:12:55.168Z,41.82
2023-01-23T15:15:27.687Z,41.84
2023-01-23T15:17:58.357Z,41.81
2023-01-23T15:20:35.406Z,41.86
2023-01-23T15:23:28.509Z,41.78
2023-01-23T15:26:23.616Z,41.74
2023-01-23T15:29:03.849Z,41.67
2023-01-23T15:31:53.405Z,41.66
2023-01-23T15:34:34.867Z,41.65
2023-01-23T15:37:07.017Z,41.65
2023-01-23T15:39:40.472Z,41.40
2023-01-23T15:42:27.629Z,41.51
2023-01-23T15:44:55.929Z,41.45
2023-01-23T15:47:23.922Z,41.42
2023-01-23T15:49:52.266Z,41.25
2023-01-23T15:52:23.559Z,41.22
2023-01-23T15:54:54.893Z,41.32
2023-01-23T15:57:23.220Z,41.29
2023-01-23T15:59:51.222Z,41.17
2023-01-23T16:02:30.732Z,41.26
2023-01-23T16:05:01.195Z,41.10
2023-01-23T16:07:35.054Z,41.20
2023-01-23T16:10:17.094Z,41.38
2023-01-23T16:12:46.957Z,41.00
2023-01-23T16:15:17.757Z,41.04
2023-01-23T16:17:46.195Z,41.03
2023-01-23T16:20:16.055Z,40.78
2023-01-23T16:22:45.433Z,41.00
2023-01-23T16:25:22.423Z,40.90
2023-01-23T16:27:51.519Z,40.76
2023-01-23T16:30:21.020Z,40.26
2023-01-23T16:32:49.178Z,40.66
2023-01-23T16:35:17.746Z,40.45
2023-01-23T16:37:50.548Z,40.98
2023-01-23T16:40:21.995Z,41.06
2023-01-23T16:42:53.056Z,41.39
2023-01-23T16:45:23.936Z,41.23
2023-01-23T16:47:52.328Z,41.60
2023-01-23T16:50:24.038Z,42.34
2023-01-23T16:52:56.168Z,42.35
2023-01-23T16:55:29.112Z,42.34
2023-01-23T16:57:58.632Z,42.34
2023-01-23T17:00:34.548Z,42.27
2023-01-23T17:03:09.062Z,41.64
2023-01-23T17:05:37.410Z,41.81
2023-01-23T17:08:17.690Z,42.47
2023-01-23T17:10:47.905Z,42.28
2023-01-23T17:13:17.475Z,42.38
2023-01-23T17:15:47.213Z,42.23
2023-01-23T17:18:23.106Z,42.19
2023-01-23T17:20:51.205Z,42.09
2023-01-23T17:23:19.169Z,42.06
2023-01-23T17:25:59.766Z,42.17
2023-01-23T17:28:29.582Z,42.01
2023-01-23T17:31:00.566Z,42.37
2023-01-23T17:33:31.812Z,42.04
2023-01-23T17:36:03.399Z,42.03
2023-01-23T17:38:32.060Z,42.10
2023-01-23T17:41:01.891Z,41.98
2023-01-23T17:43:30.186Z,42.04
2023-01-23T17:46:00.545Z,41.98
2023-01-23T17:48:31.838Z,41.66
2023-01-23T17:51:00.560Z,41.81
2023-01-23T17:53:30.695Z,41.76
2023-01-23T17:55:58.702Z,41.89
2023-01-23T17:58:28.128Z,41.63
2023-01-23T18:00:56.221Z,41.64
2023-01-23T18:03:25.418Z,41.76
2023-01-23T18:05:53.819Z,41.57
2023-01-23T18:08:22.946Z,41.57
2023-01-23T18:10:55.254Z,41.51
2023-01-23T18:13:26.385Z,41.39
2023-01-23T18:16:06.747Z,41.36
2023-01-23T18:18:37.184Z,41.42
2023-01-23T18:21:08.141Z,41.29
2023-01-23T18:23:37.495Z,41.46
2023-01-23T18:26:23.643Z,41.34
2023-01-23T18:29:03.249Z,41.31
2023-01-23T18:31:39.848Z,41.18
2023-01-23T18:34:19.467Z,41.21
2023-01-23T18:37:04.748Z,41.12
2023-01-23T18:39:43.994Z,41.31
2023-01-23T18:42:17.351Z,41.16
2023-01-23T18:44:52.139Z,41.02
2023-01-23T18:47:21.839Z,40.96
2023-01-23T18:49:50.140Z,40.85
2023-01-23T18:52:22.992Z,40.76
2023-01-23T18:54:58.693Z,40.78
2023-01-23T18:57:42.956Z,40.98
2023-01-23T19:00:19.877Z,40.71
2023-01-23T19:02:52.313Z,40.53
2023-01-23T19:05:26.965Z,40.49
2023-01-23T19:07:56.050Z,40.63
2023-01-23T19:10:28.036Z,40.53
2023-01-23T19:13:08.520Z,40.67
2023-01-23T19:15:45.268Z,40.48
2023-01-23T19:18:39.780Z,40.59
2023-01-23T19:21:16.047Z,40.56
2023-01-23T19:23:50.283Z,40.45
2023-01-23T19:26:19.319Z,40.46
2023-01-23T19:28:47.859Z,40.42
2023-01-23T19:31:22.002Z,40.43
2023-01-23T19:33:52.090Z,40.39
2023-01-23T19:36:20.593Z,40.38
2023-01-23T19:38:48.843Z,40.28
2023-01-23T19:41:20.832Z,40.17
2023-01-23T19:43:50.560Z,40.14
2023-01-23T19:46:19.454Z,40.18
2023-01-23T19:48:47.937Z,40.18
2023-01-23T19:51:21.744Z,40.10
2023-01-23T19:53:49.783Z,40.06
2023-01-23T19:56:18.958Z,40.11
2023-01-23T19:58:47.662Z,40.04
2023-01-23T20:01:23.135Z,39.88
2023-01-23T20:03:51.833Z,39.99
2023-01-23T20:06:21.090Z,39.87
2023-01-23T20:08:49.086Z,39.85
2023-01-23T20:11:17.010Z,39.82
2023-01-23T20:13:45.359Z,40.01
2023-01-23T20:16:18.473Z,39.79
2023-01-23T20:18:48.081Z,39.98
2023-01-23T20:21:16.924Z,39.81
2023-01-23T20:23:46.871Z,39.54
2023-01-23T20:26:16.432Z,39.73
2023-01-23T20:28:47.374Z,39.70
2023-01-23T20:31:15.537Z,39.62
2023-01-23T20:33:43.570Z,39.70
2023-01-23T20:36:13.473Z,39.86
2023-01-23T20:38:41.852Z,39.82
2023-01-23T20:41:12.654Z,39.77
2023-01-23T20:43:41.149Z,39.73
2023-01-23T20:46:09.732Z,39.69
2023-01-23T20:48:39.112Z,39.59
2023-01-23T20:51:09.734Z,39.58
2023-01-23T20:53:39.944Z,39.58
2023-01-23T20:56:10.215Z,39.58
2023-01-23T20:58:56.157Z,39.55
2023-01-23T21:01:26.151Z,39.56
2023-01-23T21:03:54.282Z,39.58
2023-01-23T21:06:22.855Z,39.47
2023-01-23T21:08:50.860Z,39.46
2023-01-23T21:11:21.184Z,39.62
2023-01-23T21:13:54.599Z,39.47
2023-01-23T21:16:22.563Z,39.31
2023-01-23T21:18:50.560Z,39.37
2023-01-23T21:21:21.676Z,39.34
2023-01-23T21:23:50.625Z,39.43
2023-01-23T21:26:19.963Z,39.29
2023-01-23T21:28:49.333Z,39.17
2023-01-23T21:31:21.074Z,39.07
2023-01-23T21:33:49.398Z,39.25
2023-01-23T21:36:20.955Z,39.31
2023-01-23T21:38:51.207Z,39.25
2023-01-23T21:41:20.101Z,39.16
2023-01-23T21:43:48.303Z,39.29
2023-01-23T21:46:20.060Z,39.21
2023-01-23T21:48:48.103Z,39.13
2023-01-23T21:51:17.862Z,39.19
2023-01-23T21:53:47.873Z,39.11
2023-01-23T21:56:18.112Z,38.93
2023-01-23T21:58:47.104Z,39.04
2023-01-23T22:01:37.657Z,39.08
2023-01-23T22:04:09.544Z,39.16
2023-01-23T22:06:39.566Z,38.33
2023-01-23T22:09:08.756Z,39.23
2023-01-23T22:11:37.465Z,39.12
2023-01-23T22:14:07.514Z,39.06
2023-01-23T22:16:48.025Z,39.22
2023-01-23T22:19:24.670Z,39.09
2023-01-23T22:21:53.248Z,39.36
2023-01-23T22:24:21.248Z,39.41
2023-01-23T22:26:49.323Z,39.41
2023-01-23T22:29:17.464Z,39.58
2023-01-23T22:31:45.576Z,39.70
2023-01-23T22:34:13.608Z,39.65
2023-01-23T22:36:42.989Z,39.78
2023-01-23T22:39:16.067Z,39.81
2023-01-23T22:41:45.539Z,39.81
2023-01-23T22:44:13.802Z,39.79
2023-01-23T22:46:41.859Z,39.84
2023-01-23T22:49:12.863Z,39.91
2023-01-23T22:51:42.174Z,39.96
2023-01-23T22:54:10.187Z,39.83
2023-01-23T22:56:38.747Z,39.91
2023-01-23T22:59:06.937Z,39.85
2023-01-23T23:01:34.958Z,39.93
2023-01-23T23:04:03.092Z,39.98
2023-01-23T23:06:31.132Z,39.96
2023-01-23T23:09:00.488Z,39.87
2023-01-23T23:11:29.490Z,40.09
2023-01-23T23:13:58.244Z,39.97
2023-01-23T23:16:28.053Z,40.07
2023-01-23T23:18:58.014Z,40.27
2023-01-23T23:21:31.598Z,40.22
2023-01-23T23:24:02.023Z,40.14
2023-01-23T23:26:31.691Z,40.31
2023-01-23T23:29:00.506Z,40.45
2023-01-23T23:31:28.990Z,40.38
2023-01-23T23:33:57.053Z,40.14
2023-01-23T23:36:25.426Z,40.25
2023-01-23T23:38:53.436Z,40.06
2023-01-23T23:41:22.786Z,39.99
2023-01-23T23:43:50.875Z,39.90
2023-01-23T23:46:19.250Z,40.02
2023-01-23T23:48:48.191Z,39.79
2023-01-23T23:51:18.708Z,39.85
2023-01-23T23:53:47.390Z,39.85
2023-01-23T23:56:21.284Z,39.82
2023-01-23T23:58:51.151Z,39.79
